createdAt,value
2024-03-08T00:00:22.754Z,14.77
2024-03-08T00:03:24.697Z,11.65
2024-03-08T00:06:27.853Z,7.70
2024-03-08T00:09:29.612Z,7.55
2024-03-08T00:12:31.444Z,8.57
2024-03-08T00:15:33.204Z,8.38
2024-03-08T00:18:35.148Z,8.73
2024-03-08T00:21:38.343Z,11.50
2024-03-08T00:24:40.178Z,8.57
2024-03-08T00:27:42.052Z,8.70
2024-03-08T00:30:43.924Z,8.05
2024-03-08T00:33:45.801Z,17.80
2024-03-08T00:36:49.137Z,60.45
2024-03-08T00:39:51.132Z,43.35
2024-03-08T00:42:53.121Z,22.90
2024-03-08T00:45:55.003Z,18.45
2024-03-08T00:48:57.052Z,14.68
2024-03-08T00:52:00.466Z,14.57
2024-03-08T00:55:02.339Z,13.48
2024-03-08T00:58:04.489Z,8.82
2024-03-08T01:01:06.302Z,9.40
2024-03-08T01:04:08.138Z,8.65
2024-03-08T01:07:11.317Z,6.55
2024-03-08T01:10:13.378Z,6.57
2024-03-08T01:13:15.241Z,7.75
2024-03-08T01:16:17.130Z,6.03
2024-03-08T01:19:19.051Z,8.70
2024-03-08T01:22:22.346Z,13.45
2024-03-08T01:25:24.133Z,10.50
2024-03-08T01:28:26.637Z,12.77
2024-03-08T01:31:28.523Z,14.13
2024-03-08T01:34:30.433Z,15.25
2024-03-08T01:37:33.590Z,8.65
2024-03-08T01:40:35.312Z,10.40
2024-03-08T01:43:37.207Z,17.45
2024-03-08T01:46:39.022Z,35.60
2024-03-08T01:49:40.850Z,28.73
2024-03-08T01:52:44.399Z,15.40
2024-03-08T01:55:47.751Z,12.23
2024-03-08T01:58:50.037Z,9.15
2024-03-08T02:01:52.020Z,10.25
2024-03-08T02:04:53.782Z,8.23
2024-03-08T02:07:57.415Z,10.52
2024-03-08T02:11:00.027Z,7.82
2024-03-08T02:17:03.810Z,10.30
2024-03-08T02:20:06.397Z,7.18
2024-03-08T02:23:09.835Z,7.78
2024-03-08T02:26:11.826Z,9.45
2024-03-08T02:29:14.197Z,7.18
2024-03-08T02:32:15.990Z,8.05
2024-03-08T02:35:17.726Z,6.15
2024-03-08T02:38:23.601Z,6.75
2024-03-08T02:41:25.408Z,6.85
2024-03-08T02:44:27.178Z,10.15
2024-03-08T02:47:29.130Z,11.05
2024-03-08T02:50:31.138Z,10.38
2024-03-08T02:53:34.373Z,10.30
2024-03-08T02:56:36.472Z,10.95
2024-03-08T02:59:38.442Z,9.93
2024-03-08T03:02:40.511Z,7.88
2024-03-08T03:05:44.267Z,8.20
2024-03-08T03:08:49.534Z,10.23
2024-03-08T03:11:51.463Z,10.07
2024-03-08T03:14:53.340Z,7.07
2024-03-08T03:17:55.489Z,9.10
2024-03-08T03:20:57.586Z,8.32
2024-03-08T03:24:00.928Z,10.63
2024-03-08T03:27:02.780Z,9.38
2024-03-08T03:30:05.787Z,5.40
2024-03-08T03:33:07.714Z,5.13
2024-03-08T03:36:09.848Z,7.55
2024-03-08T03:39:13.260Z,6.72
2024-03-08T03:42:15.189Z,7.22
2024-03-08T03:45:17.156Z,7.13
2024-03-08T03:48:19.005Z,7.15
2024-03-08T03:51:21.054Z,8.43
2024-03-08T03:54:24.304Z,6.63
2024-03-08T03:57:26.088Z,7.10
2024-03-08T04:00:28.720Z,15.70
2024-03-08T04:06:32.085Z,16.75
2024-03-08T04:09:42.285Z,11.57
2024-03-08T04:12:44.126Z,6.88
2024-03-08T04:15:48.979Z,7.25
2024-03-08T04:18:51.846Z,7.43
2024-03-08T04:21:53.744Z,6.05
2024-03-08T04:24:57.105Z,6.20
2024-03-08T04:27:58.937Z,7.30
2024-03-08T04:31:01.433Z,8.65
2024-03-08T04:34:03.278Z,10.00
2024-03-08T04:37:05.171Z,9.68
2024-03-08T04:40:09.108Z,11.73
2024-03-08T04:43:11.201Z,13.27
2024-03-08T04:46:13.436Z,12.85
2024-03-08T04:49:15.209Z,14.40
2024-03-08T04:52:17.532Z,9.40
2024-03-08T04:55:20.738Z,16.23
2024-03-08T04:58:22.875Z,17.95
2024-03-08T05:01:24.641Z,16.88
2024-03-08T05:04:26.414Z,11.35
2024-03-08T05:07:28.216Z,11.73
2024-03-08T05:10:31.521Z,12.35
2024-03-08T05:13:33.302Z,14.43
2024-03-08T05:16:35.149Z,11.38
2024-03-08T05:19:37.443Z,10.25
2024-03-08T05:22:39.420Z,14.75
2024-03-08T05:25:42.611Z,17.15
2024-03-08T05:28:44.395Z,13.63
2024-03-08T05:31:48.677Z,10.98
2024-03-08T05:34:50.467Z,9.40
2024-03-08T05:37:52.251Z,11.27
2024-03-08T05:40:55.726Z,7.93
2024-03-08T05:43:57.720Z,9.55
2024-03-08T05:46:59.649Z,9.50
2024-03-08T05:50:01.463Z,10.95
2024-03-08T05:53:03.320Z,10.15
2024-03-08T05:56:07.308Z,14.63
2024-03-08T05:59:09.110Z,12.88
2024-03-08T06:02:10.869Z,11.88
2024-03-08T06:05:12.773Z,16.13
2024-03-08T06:08:14.609Z,13.23
2024-03-08T06:11:18.672Z,17.52
2024-03-08T06:14:20.475Z,6.80
2024-03-08T06:17:22.236Z,5.97
2024-03-08T06:20:24.063Z,11.25
2024-03-08T06:23:25.968Z,8.35
2024-03-08T06:26:30.644Z,6.85
2024-03-08T06:29:33.170Z,10.05
2024-03-08T06:32:35.019Z,10.00
2024-03-08T06:35:36.916Z,10.90
2024-03-08T06:38:38.861Z,10.98
2024-03-08T06:41:42.109Z,24.38
2024-03-08T06:44:43.882Z,18.58
2024-03-08T06:47:45.820Z,18.55
2024-03-08T06:50:48.610Z,15.00
2024-03-08T06:53:50.779Z,13.18
2024-03-08T06:56:53.997Z,8.45
2024-03-08T06:59:55.997Z,8.65
2024-03-08T07:02:57.839Z,7.10
2024-03-08T07:05:59.687Z,5.75
2024-03-08T07:09:01.509Z,5.10
2024-03-08T07:12:05.344Z,5.78
2024-03-08T07:15:08.103Z,5.68
2024-03-08T07:18:10.014Z,4.78
2024-03-08T07:21:11.868Z,9.57
2024-03-08T07:24:14.023Z,5.03
2024-03-08T07:27:17.783Z,4.50
2024-03-08T07:30:20.307Z,5.30
2024-03-08T07:33:22.120Z,5.72
2024-03-08T07:36:24.182Z,6.10
2024-03-08T07:39:26.066Z,7.15
2024-03-08T07:42:29.252Z,4.80
2024-03-08T07:45:31.047Z,4.57
2024-03-08T07:48:32.940Z,8.60
2024-03-08T07:51:34.738Z,7.00
2024-03-08T07:54:36.640Z,9.50
2024-03-08T07:57:39.888Z,5.93
2024-03-08T08:00:41.677Z,4.97
2024-03-08T08:03:43.477Z,8.50
2024-03-08T08:06:45.236Z,5.60
2024-03-08T08:09:46.985Z,5.30
2024-03-08T08:12:50.622Z,7.13
2024-03-08T08:15:52.388Z,5.57
2024-03-08T08:18:54.305Z,4.45
2024-03-08T08:21:56.087Z,5.90
2024-03-08T08:24:57.897Z,4.53
2024-03-08T08:28:01.308Z,5.28
2024-03-08T08:31:03.478Z,4.63
2024-03-08T08:34:05.196Z,5.25
2024-03-08T08:37:12.657Z,4.50
2024-03-08T08:40:14.761Z,4.60
2024-03-08T08:43:17.982Z,8.20
2024-03-08T08:46:21.330Z,8.38
2024-03-08T08:49:31.999Z,4.40
2024-03-08T08:52:33.887Z,6.40
2024-03-08T08:55:35.665Z,6.97
2024-03-08T09:05:20.556Z,7.25
2024-03-08T09:11:53.559Z,5.80
2024-03-08T09:14:55.473Z,4.07
2024-03-08T09:17:57.751Z,5.13
2024-03-08T09:20:59.781Z,4.32
2024-03-08T09:24:01.818Z,5.13
2024-03-08T09:27:05.683Z,6.85
2024-03-08T09:30:08.878Z,6.20
2024-03-08T09:36:28.765Z,3.42
2024-03-08T09:39:32.683Z,2.47
2024-03-08T09:42:45.464Z,4.35
2024-03-08T09:49:19.475Z,3.15
2024-03-08T09:52:22.866Z,4.18
2024-03-08T09:55:28.405Z,4.97
2024-03-08T09:58:31.946Z,3.08
2024-03-08T10:01:44.591Z,4.90
2024-03-08T10:08:03.107Z,3.55
2024-03-08T10:11:05.687Z,3.00
2024-03-08T10:14:09.608Z,3.88
2024-03-08T10:17:11.421Z,2.38
2024-03-08T10:20:16.508Z,4.03
2024-03-08T10:23:19.879Z,4.65
2024-03-08T10:26:23.021Z,4.85
2024-03-08T10:29:25.136Z,4.97
2024-03-08T10:32:27.040Z,3.38
2024-03-08T10:35:28.931Z,3.53
2024-03-08T10:38:34.458Z,3.58
2024-03-08T10:41:38.685Z,3.30
2024-03-08T10:48:27.240Z,2.72
2024-03-08T10:51:31.533Z,4.85
2024-03-08T10:54:49.770Z,3.75
2024-03-08T10:57:53.011Z,3.92
2024-03-08T11:00:56.040Z,4.60
2024-03-08T11:03:57.949Z,6.65
2024-03-08T11:07:02.277Z,3.10
2024-03-08T11:10:04.519Z,3.47
2024-03-08T11:13:33.874Z,7.13
2024-03-08T11:19:48.123Z,5.88
2024-03-08T11:22:51.611Z,3.50
2024-03-08T11:25:53.512Z,2.75
2024-03-08T11:28:56.772Z,4.25
2024-03-08T11:32:05.312Z,3.75
2024-03-08T11:35:10.170Z,3.22
2024-03-08T11:38:24.516Z,3.80
2024-03-08T11:41:29.732Z,5.47
2024-03-08T11:44:32.973Z,4.97
2024-03-08T11:47:36.263Z,5.05
2024-03-08T11:50:38.115Z,3.65
2024-03-08T11:53:40.134Z,5.55
2024-03-08T12:00:16.172Z,3.20
2024-03-08T12:03:17.985Z,4.80
2024-03-08T12:06:20.506Z,2.15
2024-03-08T12:09:22.494Z,4.55
2024-03-08T12:12:26.234Z,3.05
2024-03-08T12:18:44.510Z,4.15
2024-03-08T12:24:59.482Z,3.60
2024-03-08T12:28:08.949Z,5.15
2024-03-08T12:34:28.223Z,4.47
2024-03-08T12:37:30.492Z,5.75
2024-03-08T12:46:53.438Z,6.80
2024-03-08T12:49:57.560Z,4.65
2024-03-08T12:53:02.168Z,4.30
2024-03-08T12:56:05.373Z,6.97
2024-03-08T12:59:08.794Z,4.43
2024-03-08T13:02:10.713Z,4.22
2024-03-08T13:05:14.042Z,5.13
2024-03-08T13:11:23.899Z,4.45
2024-03-08T13:17:43.839Z,6.28
2024-03-08T13:23:50.482Z,6.47
2024-03-08T13:30:01.747Z,5.32
2024-03-08T13:52:27.608Z,4.10
2024-03-08T13:55:29.582Z,5.85
2024-03-08T14:01:41.535Z,4.60
2024-03-08T14:04:46.242Z,3.60
2024-03-08T14:11:07.751Z,5.20
2024-03-08T14:14:09.652Z,5.82
2024-03-08T14:17:12.009Z,5.40
2024-03-08T14:23:38.201Z,3.83
2024-03-08T14:26:51.352Z,5.53
2024-03-08T14:30:06.097Z,7.60
2024-03-08T14:33:09.076Z,4.00
2024-03-08T14:39:47.705Z,5.63
2024-03-08T14:46:07.035Z,5.25
2024-03-08T14:59:29.889Z,4.78
2024-03-08T15:09:48.774Z,4.70
2024-03-08T15:16:01.968Z,8.02
2024-03-08T15:22:09.452Z,5.00
2024-03-08T15:37:53.362Z,4.05
2024-03-08T15:40:55.601Z,8.60
2024-03-08T15:50:45.939Z,4.68
2024-03-08T16:10:46.497Z,7.03
2024-03-08T16:24:13.827Z,6.30
2024-03-08T16:40:33.727Z,4.55
2024-03-08T16:43:44.409Z,3.75
2024-03-08T16:46:47.846Z,7.53
2024-03-08T16:49:51.494Z,4.07
2024-03-08T16:56:14.729Z,7.53
2024-03-08T16:59:25.529Z,6.25
2024-03-08T17:02:28.016Z,4.25
2024-03-08T17:05:32.025Z,8.05
2024-03-08T17:08:33.812Z,8.98
2024-03-08T17:17:59.407Z,7.32
2024-03-08T17:21:02.783Z,7.72
2024-03-08T17:24:06.647Z,9.63
2024-03-08T17:30:25.740Z,7.55
2024-03-08T17:36:40.911Z,10.93
2024-03-08T17:39:44.538Z,10.35
2024-03-08T17:42:49.993Z,8.15
2024-03-08T17:52:14.986Z,8.27
2024-03-08T17:55:19.251Z,6.80
2024-03-08T18:01:23.336Z,5.40
2024-03-08T18:07:43.757Z,5.40
2024-03-08T18:10:47.162Z,5.35
2024-03-08T18:13:49.782Z,12.52
2024-03-08T18:16:51.861Z,6.75
2024-03-08T18:19:54.794Z,12.18
2024-03-08T18:22:56.786Z,8.48
2024-03-08T18:26:10.880Z,6.80
2024-03-08T18:29:14.128Z,7.43
2024-03-08T18:32:15.931Z,6.25
2024-03-08T18:35:18.127Z,8.23
2024-03-08T18:38:20.557Z,7.05
2024-03-08T18:41:22.536Z,10.50
2024-03-08T18:44:25.775Z,10.27
2024-03-08T18:47:27.623Z,9.77
2024-03-08T18:50:29.489Z,17.20
2024-03-08T18:53:31.306Z,16.60
2024-03-08T18:56:39.758Z,8.63
2024-03-08T18:59:49.650Z,12.18
2024-03-08T19:02:53.941Z,9.27
2024-03-08T19:06:03.448Z,10.43
2024-03-08T19:09:05.952Z,11.88
2024-03-08T19:12:11.737Z,10.38
2024-03-08T19:15:15.795Z,16.85
2024-03-08T19:18:17.971Z,8.57
2024-03-08T19:21:20.841Z,10.43
2024-03-08T19:24:24.395Z,8.60
2024-03-08T19:27:27.077Z,11.38
2024-03-08T19:30:30.434Z,10.32
2024-03-08T19:33:32.709Z,11.15
2024-03-08T19:36:34.914Z,13.93
2024-03-08T19:39:37.292Z,14.95
2024-03-08T19:42:39.017Z,13.77
2024-03-08T19:45:42.205Z,12.88
2024-03-08T19:48:43.965Z,14.02
2024-03-08T19:51:45.754Z,9.35
2024-03-08T19:54:48.540Z,7.93
2024-03-08T19:57:51.943Z,6.53
2024-03-08T20:00:55.558Z,5.05
2024-03-08T20:03:57.408Z,6.20
2024-03-08T20:06:59.134Z,6.25
2024-03-08T20:10:07.758Z,4.80
2024-03-08T20:13:09.768Z,12.45
2024-03-08T20:16:12.931Z,22.33
2024-03-08T20:19:16.068Z,9.98
2024-03-08T20:22:17.868Z,10.02
2024-03-08T20:25:21.047Z,8.65
2024-03-08T20:28:24.063Z,10.10
2024-03-08T20:31:27.404Z,7.47
2024-03-08T20:34:29.307Z,5.97
2024-03-08T20:37:31.207Z,12.30
2024-03-08T20:40:33.819Z,7.82
2024-03-08T20:43:35.677Z,6.50
2024-03-08T20:46:40.041Z,6.30
2024-03-08T20:49:45.912Z,8.18
2024-03-08T20:52:48.076Z,6.53
2024-03-08T20:55:53.629Z,6.43
2024-03-08T20:58:55.883Z,7.72
2024-03-08T21:02:01.764Z,5.75
2024-03-08T21:05:04.026Z,4.97
2024-03-08T21:08:09.386Z,6.75
2024-03-08T21:11:11.427Z,9.38
2024-03-08T21:14:13.453Z,10.48
2024-03-08T21:17:16.684Z,6.22
2024-03-08T21:20:19.600Z,3.97
2024-03-08T21:23:22.834Z,5.60
2024-03-08T21:26:25.249Z,3.55
2024-03-08T21:29:27.026Z,5.53
2024-03-08T21:32:30.205Z,2.97
2024-03-08T21:35:32.134Z,2.70
2024-03-08T21:38:33.943Z,5.20
2024-03-08T21:41:35.808Z,5.65
2024-03-08T21:44:37.701Z,4.07
2024-03-08T21:47:40.942Z,3.65
2024-03-08T21:50:42.739Z,6.32
2024-03-08T21:53:44.558Z,3.70
2024-03-08T21:56:46.383Z,3.13
2024-03-08T21:59:48.149Z,5.32
2024-03-08T22:02:51.735Z,3.67
2024-03-08T22:05:53.605Z,5.50
2024-03-08T22:08:55.603Z,3.17
2024-03-08T22:11:58.574Z,4.80
2024-03-08T22:15:00.642Z,4.78
2024-03-08T22:18:04.002Z,6.75
2024-03-08T22:21:06.371Z,4.13
2024-03-08T22:24:08.251Z,4.28
2024-03-08T22:27:10.442Z,5.65
2024-03-08T22:30:13.564Z,3.88
2024-03-08T22:33:16.828Z,3.10
2024-03-08T22:36:18.628Z,4.10
2024-03-08T22:39:20.393Z,3.83
2024-03-08T22:42:22.740Z,4.97
2024-03-08T22:45:25.065Z,3.88
2024-03-08T22:48:28.632Z,3.20
2024-03-08T22:51:30.790Z,4.38
2024-03-08T22:54:32.533Z,4.07
2024-03-08T22:57:34.497Z,3.65
2024-03-08T23:00:36.306Z,3.97
2024-03-08T23:03:39.477Z,2.70
2024-03-08T23:06:41.440Z,3.40
2024-03-08T23:09:50.216Z,2.40
2024-03-08T23:12:52.095Z,3.35
2024-03-08T23:15:53.936Z,3.47
2024-03-08T23:18:57.539Z,2.78
2024-03-08T23:21:59.592Z,5.18
2024-03-08T23:25:01.389Z,4.88
2024-03-08T23:28:03.392Z,4.38
2024-03-08T23:31:05.309Z,3.83
2024-03-08T23:34:08.519Z,5.38
2024-03-08T23:37:10.985Z,3.33
2024-03-08T23:40:14.568Z,3.80
2024-03-08T23:43:16.329Z,3.67
2024-03-08T23:46:18.125Z,3.85
2024-03-08T23:49:21.254Z,3.53
2024-03-08T23:52:23.192Z,3.80
2024-03-08T23:55:25.226Z,5.03
2024-03-08T23:58:27.038Z,2.50
